x

Point Arguello, Ca (ptgc1) Weather Station

11:00pm - Fri 29th May 2015 All times are PDT. -7 hours from GMT.

  • Wind
    28mph, 29mph gusts
  • Air Temp 52°f
  • Sea Pressure 1013.5mb
  • Point Arguello, Ca
  • Point Arguello, Ca

More Historic Weather Station data

Upgrade to MSW Pro to gain access to the past 30 days of data for over 8000 Wavebouys and Weather Stations around the globe.

Join Pro

Comparision Forecast

View Surf forecast
   
Fri 05/29 11:00pm 28 29 mph 1013.5mb 52f
10:00pm 26 28 mph 1013.7mb 53f
9:00pm 25 26 mph 1013.5mb 53f
8:00pm 25 29 mph 1013.7mb 53f
7:00pm 28 29 mph 1013.5mb 53f
6:00pm 20 21 mph 1013.9mb 54f
5:00pm 17 18 mph 1014.4mb 54f
4:00pm 15 16 mph 1014.6mb 54f
3:00pm 16 17 mph 1014.6mb 54f
2:00pm 16 18 mph 1015.1mb 54f
1:00pm 16 17 mph 1015.6mb 54f
12:00pm 14 16 mph 1016mb 54f
11:00am 15 18 mph 1016mb 52f
10:00am 16 17 mph 1015.7mb 51f
9:00am 17 18 mph 1015.5mb 51f
8:00am 11 13 mph 1015.2mb 51f
7:00am 16 17 mph 1014.9mb 51f
6:00am 22 24 mph 1014.6mb 51f
5:00am 21 23 mph 1014.2mb 51f
4:00am 26 29 mph 1013.9mb 52f
3:00am 25 28 mph 1014.2mb 52f
2:00am 28 30 mph 1014.3mb 52f
1:00am 29 31 mph 1014.4mb 52f
12:00am 31 33 mph 1014.6mb 53f
Thu 05/28 11:00pm 29 32 mph 1014.9mb 53f
10:00pm 30 31 mph 1015mb 53f
9:00pm 31 33 mph 1014.4mb 53f
8:00pm 26 29 mph 1014.5mb 54f
7:00pm 26 28 mph 1014.4mb 54f
6:00pm 25 28 mph 1014.6mb 54f
5:00pm 26 28 mph 1014.9mb 54f
4:00pm 26 28 mph 1015.2mb 54f
3:00pm 23 24 mph 1015.8mb 54f
2:00pm 22 23 mph 1016.3mb 54f
1:00pm 21 22 mph 1016.2mb 54f
12:00pm 22 24 mph 1016.7mb 53f
11:00am 24 25 mph 1016.7mb 53f
10:00am 24 26 mph 1016.6mb 53f
9:00am 24 26 mph 1016.6mb 52f
8:00am 24 28 mph 1016.3mb 52f
7:00am 26 29 mph 1015.9mb 52f
6:00am 25 28 mph 1015.5mb 52f
5:00am 26 29 mph 1014.9mb 53f
4:00am 24 25 mph 1015mb 53f
3:00am 25 28 mph 1015.1mb 53f
2:00am 26 28 mph 1015.3mb 53f
1:00am 25 26 mph 1015.5mb 53f
12:00am 28 29 mph 1015.9mb 53f
Wed 05/27 11:00pm 28 31 mph 1016mb 53f
10:00pm 26 28 mph 1015.9mb 53f
9:00pm 23 25 mph 1015.7mb 54f
8:00pm 22 24 mph 1015.4mb 55f
7:00pm 23 24 mph 1015.4mb 55f
6:00pm 22 23 mph 1015.8mb 55f
5:00pm 18 21 mph 1016.1mb 55f
4:00pm 20 21 mph 1016.2mb 55f
3:00pm 15 16 mph 1016.6mb 55f
2:00pm 15 16 mph 1016.8mb 54f
1:00pm 17 18 mph 1017.1mb 54f
12:00pm 18 22 mph 1017mb 55f
11:00am 16 17 mph 1017.4mb 54f
10:00am 17 18 mph 1017.3mb 55f
9:00am 16 17 mph 1017.2mb 55f
8:00am 17 20 mph 1016.8mb 54f
7:00am 17 18 mph 1016.7mb 54f
6:00am 16 17 mph 1016.3mb 54f
5:00am 14 15 mph 1015.8mb 54f
4:00am 18 20 mph 1015.8mb 54f
3:00am 17 21 mph 1016mb 55f
2:00am 18 20 mph 1016.1mb 55f
1:00am 18 21 mph 1016.4mb 55f
12:00am 17 18 mph 1016.3mb 54f
Tue 05/26 11:00pm 18 20 mph 1016.1mb 55f
10:00pm 17 20 mph 1016.2mb 55f
9:00pm 17 18 mph 1016.1mb 55f
8:00pm 18 21 mph 1016mb 55f
7:00pm 17 20 mph 1016.3mb 55f
6:00pm 14 15 mph 1016.7mb 55f
5:00pm 13 14 mph 1016.6mb 55f
4:00pm 15 16 mph 1016.8mb 55f
3:00pm 13 14 mph 1016.9mb 54f
2:00pm 11
mph
1017.2mb 54f
1:00pm 11 13 mph 1017.5mb 54f
12:00pm 14 15 mph 1017.4mb 54f
11:00am 17 18 mph 1017.3mb 54f
10:00am 15 16 mph 1017.3mb 53f
9:00am 15 16 mph 1016.9mb 54f
8:00am 11 14 mph 1016.7mb 54f